Port Imperial New Jersey — WBR3133 — position and weather

sailwx.info

Track history (hours):
 
Tides and Currents Weather Stations Pressure Air Temp Water Temp Dewpoint Dewpoint Depression Visibility Wind Speed Wind Dir Waves Ship Positions

Port Imperial New Jersey

Owner: PORT IMPERIAL FERRY CORP, WEEHAWKEN, NJ. More information available from US FCC via Universal Licensing System and Coast Guard Vessel Documentation Center.

Last reported at 2015-Aug-04 15:34 UTC. Time now 2015-Aug-04 15:56 UTC.
Position N 40°46' W 074°00'.

Length 31 m.

Type: Passenger vessel. MMSI: 366990550.

Date/timePositionNaut miles runAvg speedWind from/ knotsBaromVisibWave heightAir tempDewpointWater temp
2015-Aug-04 15:34N 40°46' W 074°00'1 0.7
2015-Aug-04 14:34N 40°46' W 074°01'1 0.0
2015-Aug-03 17:33N 40°46' W 074°00'0 0.0
2015-Aug-03 16:34N 40°46' W 074°00'0 0.0
2015-Aug-03 15:33N 40°46' W 074°00'0 0.1
2015-Aug-03 14:33N 40°46' W 074°00'1 0.7
2015-Aug-03 13:33N 40°46' W 074°01'0 0.0
2015-Aug-02 19:30N 40°46' W 074°01'2 1.8
2015-Aug-02 18:33N 40°45' W 074°01'0 0.3
2015-Aug-02 17:34N 40°44' W 074°01'0 0.1
2015-Aug-02 16:33N 40°44' W 074°01'1 1.2
2015-Aug-02 15:33N 40°43' W 074°02'0 0.1
2015-Aug-02 14:33N 40°43' W 074°02'3 0.2
2015-Aug-01 17:24N 40°46' W 074°01'3 3.1
2015-Aug-01 16:34N 40°44' W 074°01'0 0.2
2015-Aug-01 15:34N 40°44' W 074°01'0 0.0
2015-Aug-01 14:33N 40°44' W 074°01'2 2.5
2015-Aug-01 13:33N 40°46' W 074°01'1 0.0
2015-Jul-31 17:33N 40°46' W 074°00'0 0.0
2015-Jul-31 16:33N 40°46' W 074°00'0 0.0
2015-Jul-31 15:33N 40°46' W 074°00'0 0.0
2015-Jul-31 14:33N 40°46' W 074°00'0 0.0
2015-Jul-30 19:33N 40°46' W 074°00'0 0.0
2015-Jul-30 18:33N 40°46' W 074°00'0 0.0
2015-Jul-30 17:33N 40°46' W 074°00'0 0.0
2015-Jul-30 16:33N 40°46' W 074°00'0 0.0
2015-Jul-30 15:33N 40°46' W 074°00'0 0.0
2015-Jul-30 14:33N 40°46' W 074°00'1 0.0
2015-Jul-29 18:33N 40°46' W 074°01'1 0.7
2015-Jul-29 17:33N 40°46' W 074°00'0 0.0
2015-Jul-29 16:33N 40°46' W 074°00'0 0.0
2015-Jul-29 15:33N 40°46' W 074°00'0 0.4
2015-Jul-29 14:33N 40°46' W 074°01'0 0.0
2015-Jul-28 17:33N 40°46' W 074°00'0 0.1
2015-Jul-28 16:34N 40°46' W 074°00'0 0.0
2015-Jul-28 15:33N 40°46' W 074°00'0 0.0
2015-Jul-28 14:33N 40°46' W 074°00'1 0.0
2015-Jul-27 14:28N 40°46' W 074°01'1 1.0
2015-Jul-27 13:34N 40°46' W 074°01'0 0.0
2015-Jul-27 12:33N 40°46' W 074°01'0 0.4
2015-Jul-27 11:33N 40°45' W 074°01'1 0.9
2015-Jul-27 10:33N 40°46' W 074°01'4 0.3
2015-Jul-26 21:33N 40°43' W 074°01'7 6.5
2015-Jul-26 20:33N 40°39' W 074°08'7 6.9
2015-Jul-26 19:33N 40°42' W 074°00'2 2.5
2015-Jul-26 18:33N 40°44' W 074°01'2 1.8
2015-Jul-26 17:33N 40°46' W 074°01'0 0.0
2015-Jul-26 16:33N 40°46' W 074°01'0 0.0
2015-Jul-26 15:33N 40°46' W 074°01'2 2.0
2015-Jul-26 14:33N 40°44' W 074°01'2 0.1
2015-Jul-25 18:17N 40°46' W 074°00'2 2.9
2015-Jul-25 17:33N 40°44' W 074°01'1 1.0
2015-Jul-25 16:34N 40°43' W 074°02'  
Track history (hours):
 
Tides and Currents Weather Stations Pressure Air Temp Water Temp Dewpoint Dewpoint Depression Visibility Wind Speed Wind Dir Waves Ship Positions

Port Imperial New Jersey

Owner: PORT IMPERIAL FERRY CORP, WEEHAWKEN, NJ. More information available from US FCC via Universal Licensing System and Coast Guard Vessel Documentation Center.

Last reported at 2015-Aug-04 15:34 UTC. Time now 2015-Aug-04 15:56 UTC.
Position N 40°46' W 074°00'.

Length 31 m.

Type: Passenger vessel. MMSI: 366990550.

Date/timePositionNaut miles runAvg speedWind from/ knotsBaromVisibWave heightAir tempDewpointWater temp
2015-Aug-04 15:34N 40°46' W 074°00'1 0.7
2015-Aug-04 14:34N 40°46' W 074°01'1 0.0
2015-Aug-03 17:33N 40°46' W 074°00'0 0.0
2015-Aug-03 16:34N 40°46' W 074°00'0 0.0
2015-Aug-03 15:33N 40°46' W 074°00'0 0.1
2015-Aug-03 14:33N 40°46' W 074°00'1 0.7
2015-Aug-03 13:33N 40°46' W 074°01'0 0.0
2015-Aug-02 19:30N 40°46' W 074°01'2 1.8
2015-Aug-02 18:33N 40°45' W 074°01'0 0.3
2015-Aug-02 17:34N 40°44' W 074°01'0 0.1
2015-Aug-02 16:33N 40°44' W 074°01'1 1.2
2015-Aug-02 15:33N 40°43' W 074°02'0 0.1
2015-Aug-02 14:33N 40°43' W 074°02'3 0.2
2015-Aug-01 17:24N 40°46' W 074°01'3 3.1
2015-Aug-01 16:34N 40°44' W 074°01'0 0.2
2015-Aug-01 15:34N 40°44' W 074°01'0 0.0
2015-Aug-01 14:33N 40°44' W 074°01'2 2.5
2015-Aug-01 13:33N 40°46' W 074°01'1 0.0
2015-Jul-31 17:33N 40°46' W 074°00'0 0.0
2015-Jul-31 16:33N 40°46' W 074°00'0 0.0
2015-Jul-31 15:33N 40°46' W 074°00'0 0.0
2015-Jul-31 14:33N 40°46' W 074°00'0 0.0
2015-Jul-30 19:33N 40°46' W 074°00'0 0.0
2015-Jul-30 18:33N 40°46' W 074°00'0 0.0
2015-Jul-30 17:33N 40°46' W 074°00'0 0.0
2015-Jul-30 16:33N 40°46' W 074°00'0 0.0
2015-Jul-30 15:33N 40°46' W 074°00'0 0.0
2015-Jul-30 14:33N 40°46' W 074°00'1 0.0
2015-Jul-29 18:33N 40°46' W 074°01'1 0.7
2015-Jul-29 17:33N 40°46' W 074°00'0 0.0
2015-Jul-29 16:33N 40°46' W 074°00'0 0.0
2015-Jul-29 15:33N 40°46' W 074°00'0 0.4
2015-Jul-29 14:33N 40°46' W 074°01'0 0.0
2015-Jul-28 17:33N 40°46' W 074°00'0 0.1
2015-Jul-28 16:34N 40°46' W 074°00'0 0.0
2015-Jul-28 15:33N 40°46' W 074°00'0 0.0
2015-Jul-28 14:33N 40°46' W 074°00'1 0.0
2015-Jul-27 14:28N 40°46' W 074°01'1 1.0
2015-Jul-27 13:34N 40°46' W 074°01'0 0.0
2015-Jul-27 12:33N 40°46' W 074°01'0 0.4
2015-Jul-27 11:33N 40°45' W 074°01'1 0.9
2015-Jul-27 10:33N 40°46' W 074°01'4 0.3
2015-Jul-26 21:33N 40°43' W 074°01'7 6.5
2015-Jul-26 20:33N 40°39' W 074°08'7 6.9
2015-Jul-26 19:33N 40°42' W 074°00'2 2.5
2015-Jul-26 18:33N 40°44' W 074°01'2 1.8
2015-Jul-26 17:33N 40°46' W 074°01'0 0.0
2015-Jul-26 16:33N 40°46' W 074°01'0 0.0
2015-Jul-26 15:33N 40°46' W 074°01'2 2.0
2015-Jul-26 14:33N 40°44' W 074°01'2 0.1
2015-Jul-25 18:17N 40°46' W 074°00'2 2.9
2015-Jul-25 17:33N 40°44' W 074°01'1 1.0
2015-Jul-25 16:34N 40°43' W 074°02'  

Dump ship's entire track history